Página principal
METAR-TAF:

METAR-TAF

Aeroportos :

Ruby, Alasca, Estados Unidos

latitude: 64-43-38N, longitude: 155-28-12W, altura: 201 m

Observação actual do tempo

O boletim foi feito há 23 minutos, às 18:56 UTC
Vento 5 kt com direcção variável
Temperatura 15°C
Humidade 48%
Pressão 1022 hPa
Visibilidade: 16.1 km
Céu limpo

METAR: PARY 151856Z AUTO VRB05KT 10SM CLR 15/04 A3019 RMK AO2 SLP229 T01500044 TSNO

Hora: 11:19 (19:19 UTC)


TAF: em falta

Observações e previsões do tempo de mais de 4000 aeroportos (mensagens METAR e TAF).

As estações disponíveis são os pontos amarelos e vermelhos sobre o mapa.

Mova o rato sobre o mapa para ver o nome da estação.

Depois clique no ponto para visualizar as observações e previsões meteorológicas.

Para alterar o mapa : clique nos botões verdes com uma cruz preta para aumentar o zoom; no botão verde com uma pitada de zoom; ou nas setas verdes para mapas adjacentes.


METAR-TAF: